Time;durP1;ratioP1;P1;durP2;ratioP2;P2;SDS_P1;SDS_P2;PMS_P1;PMS_P2;Temp;Humidity;BMP_temperature;BMP_pressure;BME280_temperature;BME280_humidity;BME280_pressure;Samples;Min_cycle;Max_cycle;Signal;HPM_P1;HPM_P2
2022/03/06 00:01:31;;;;;;;3.03;2.63;;;1.60;99.20;;;;;;5071383;28;20223;-54
2022/03/06 00:04:16;;;;;;;2.33;2.13;;;1.60;99.30;;;;;;5077374;28;20292;-55
2022/03/06 00:07:00;;;;;;;4.37;2.90;;;1.50;99.40;;;;;;5082102;28;20290;-50
2022/03/06 00:09:45;;;;;;;4.13;2.53;;;1.40;99.50;;;;;;5085051;28;20228;-50
2022/03/06 00:12:29;;;;;;;2.07;1.90;;;1.30;99.70;;;;;;5084393;28;20234;-53
2022/03/06 00:15:14;;;;;;;4.00;2.80;;;1.20;99.80;;;;;;5081578;28;20195;-52
2022/03/06 00:17:58;;;;;;;2.83;2.30;;;1.20;99.90;;;;;;5085141;28;20232;-55
2022/03/06 00:20:43;;;;;;;3.60;2.60;;;1.10;99.90;;;;;;5083623;28;20243;-54
2022/03/06 00:23:27;;;;;;;3.10;2.33;;;1.10;99.90;;;;;;5081778;28;20224;-51
2022/03/06 00:26:12;;;;;;;1.83;1.70;;;1.10;99.90;;;;;;5085369;28;20200;-51
2022/03/06 00:28:56;;;;;;;4.67;2.47;;;0.90;99.90;;;;;;5082182;28;20205;-54
2022/03/06 00:31:41;;;;;;;3.63;2.17;;;0.90;99.90;;;;;;5083611;28;20212;-54
2022/03/06 00:34:25;;;;;;;1.67;1.57;;;0.90;99.90;;;;;;5084803;28;20196;-54
2022/03/06 00:37:09;;;;;;;1.73;1.33;;;0.80;99.90;;;;;;5081356;28;20227;-54
2022/03/06 00:39:53;;;;;;;3.47;3.03;;;0.70;99.90;;;;;;5084592;28;20319;-51
2022/03/06 00:42:38;;;;;;;3.53;1.90;;;0.60;99.90;;;;;;5085003;28;20217;-51
2022/03/06 00:45:22;;;;;;;4.10;2.20;;;0.50;99.90;;;;;;5081569;28;20197;-51
2022/03/06 00:48:06;;;;;;;5.83;2.83;;;0.50;99.90;;;;;;5084604;28;20228;-53
2022/03/06 00:50:51;;;;;;;5.33;2.33;;;0.30;99.90;;;;;;5083242;28;20204;-57
2022/03/06 00:53:35;;;;;;;4.77;2.17;;;0.20;99.90;;;;;;5081401;28;20197;-56
2022/03/06 00:56:20;;;;;;;3.73;3.37;;;0.10;99.90;;;;;;5084522;28;20200;-54
2022/03/06 00:59:03;;;;;;;2.47;2.17;;;0.00;99.90;;;;;;5081994;28;20197;-54
2022/03/06 01:01:48;;;;;;;2.17;1.20;;;0.00;99.90;;;;;;5083985;28;20192;-53
2022/03/06 01:04:34;;;;;;;4.67;2.63;;;0.00;99.90;;;;;;5087065;28;20265;-54
2022/03/06 01:07:19;;;;;;;5.17;2.93;;;-0.20;99.90;;;;;;5084790;28;20197;-53
2022/03/06 01:10:03;;;;;;;3.83;2.20;;;-0.20;99.90;;;;;;5087736;28;20208;-48
2022/03/06 01:12:48;;;;;;;3.00;2.50;;;-0.20;99.90;;;;;;5087946;28;20197;-50
2022/03/06 01:15:33;;;;;;;2.17;1.97;;;-0.30;99.90;;;;;;5085087;28;20243;-51
2022/03/06 01:18:20;;;;;;;7.37;3.40;;;-0.20;99.90;;;;;;5088065;28;20252;-51
2022/03/06 01:21:04;;;;;;;3.03;1.93;;;-0.20;99.90;;;;;;5086293;28;20284;-54
2022/03/06 01:23:49;;;;;;;4.53;3.60;;;-0.20;99.90;;;;;;5085414;28;20288;-52
2022/03/06 01:26:33;;;;;;;3.73;2.53;;;-0.20;99.90;;;;;;5087875;28;20281;-51
2022/03/06 01:29:18;;;;;;;2.37;2.03;;;-0.30;99.90;;;;;;5085459;28;20222;-54
2022/03/06 01:32:03;;;;;;;4.50;2.67;;;-0.20;99.90;;;;;;5087190;28;20200;-53
2022/03/06 01:34:47;;;;;;;6.27;3.27;;;-0.30;99.90;;;;;;5088304;28;20212;-55
2022/03/06 01:37:32;;;;;;;1.80;1.70;;;-0.30;99.90;;;;;;5084434;28;20322;-51
2022/03/06 01:40:19;;;;;;;1.87;1.67;;;-0.30;99.90;;;;;;5087651;28;20235;-49
2022/03/06 01:43:04;;;;;;;2.40;2.23;;;-0.40;99.90;;;;;;5087386;28;20255;-55
2022/03/06 01:45:48;;;;;;;6.07;2.83;;;-0.40;99.90;;;;;;5084463;28;20251;-49
2022/03/06 01:48:32;;;;;;;5.07;2.97;;;-0.50;99.90;;;;;;5087862;28;20246;-55
2022/03/06 01:51:17;;;;;;;3.87;1.70;;;-0.60;99.90;;;;;;5086671;28;20212;-53
2022/03/06 01:54:02;;;;;;;5.37;2.70;;;-0.70;99.90;;;;;;5085258;28;20188;-56
2022/03/06 01:56:46;;;;;;;3.47;2.70;;;-0.80;99.90;;;;;;5087655;28;20225;-53
2022/03/06 01:59:30;;;;;;;3.90;3.60;;;-0.70;99.90;;;;;;5084204;28;20205;-57
2022/03/06 02:02:15;;;;;;;4.70;2.57;;;-0.60;99.90;;;;;;5086516;28;20244;-50
2022/03/06 02:05:00;;;;;;;7.20;2.60;;;-0.70;99.90;;;;;;5087403;28;20266;-53
2022/03/06 02:07:44;;;;;;;3.63;3.13;;;-0.80;99.90;;;;;;5083679;28;20239;-57
2022/03/06 02:10:28;;;;;;;4.03;2.60;;;-0.80;99.90;;;;;;5086628;28;20203;-54
2022/03/06 02:13:12;;;;;;;3.60;2.70;;;-0.80;99.90;;;;;;5086459;28;20196;-56
2022/03/06 02:15:57;;;;;;;5.20;3.07;;;-0.80;99.90;;;;;;5082477;28;20250;-52
2022/03/06 02:18:42;;;;;;;2.83;2.50;;;-0.70;99.90;;;;;;5086954;28;20260;-49
2022/03/06 02:21:26;;;;;;;4.67;4.27;;;-0.70;99.90;;;;;;5085103;28;20221;-55
2022/03/06 02:24:11;;;;;;;3.77;2.37;;;-0.70;99.90;;;;;;5084440;28;20298;-51
2022/03/06 02:26:55;;;;;;;5.27;2.60;;;-0.70;99.90;;;;;;5087197;28;20224;-54
2022/03/06 02:29:40;;;;;;;6.33;2.40;;;-0.80;99.90;;;;;;5083815;28;20189;-51
2022/03/06 02:32:25;;;;;;;3.13;2.90;;;-0.80;99.90;;;;;;5086621;28;20289;-54
2022/03/06 02:35:10;;;;;;;4.27;2.63;;;-0.70;99.90;;;;;;5086924;28;20196;-54
2022/03/06 02:37:54;;;;;;;4.37;4.03;;;-0.80;99.90;;;;;;5083790;28;20216;-50
2022/03/06 02:40:42;;;;;;;8.93;3.10;;;-0.80;99.90;;;;;;5086113;28;20749;-51
2022/03/06 02:43:26;;;;;;;2.63;2.23;;;-0.80;99.90;;;;;;5086222;28;20204;-53
2022/03/06 02:46:10;;;;;;;5.23;3.40;;;-0.80;99.90;;;;;;5083124;28;20189;-56
2022/03/06 02:48:54;;;;;;;2.50;2.37;;;-0.90;99.90;;;;;;5086935;28;20219;-53
2022/03/06 02:51:41;;;;;;;2.97;1.80;;;-0.90;99.90;;;;;;5084489;28;20263;-57
2022/03/06 02:54:25;;;;;;;2.73;2.53;;;-0.90;99.90;;;;;;5083887;28;20272;-53
2022/03/06 02:57:10;;;;;;;4.40;2.90;;;-0.90;99.90;;;;;;5086375;28;20251;-56
2022/03/06 02:59:54;;;;;;;2.97;2.27;;;-1.00;99.90;;;;;;5082910;28;20205;-54
2022/03/06 03:02:40;;;;;;;4.10;2.77;;;-1.00;99.90;;;;;;5085526;28;20192;-55
2022/03/06 03:05:25;;;;;;;5.87;3.80;;;-1.00;99.90;;;;;;5086029;28;20189;-50
2022/03/06 03:08:10;;;;;;;3.10;2.60;;;-1.00;99.90;;;;;;5082640;28;20193;-55
2022/03/06 03:10:54;;;;;;;3.60;3.17;;;-1.00;99.90;;;;;;5085850;28;20230;-54
2022/03/06 03:13:38;;;;;;;4.63;2.30;;;-1.00;99.90;;;;;;5085325;28;20201;-53
2022/03/06 03:16:23;;;;;;;4.53;2.50;;;-1.10;99.90;;;;;;5082707;28;20189;-51
2022/03/06 03:19:07;;;;;;;3.37;3.00;;;-1.10;99.90;;;;;;5086503;28;20205;-50
2022/03/06 03:21:52;;;;;;;7.13;3.67;;;-1.10;99.90;;;;;;5083845;28;20233;-57
2022/03/06 03:24:37;;;;;;;2.53;2.33;;;-1.10;99.90;;;;;;5083532;28;20228;-53
2022/03/06 03:27:21;;;;;;;5.00;2.33;;;-1.20;99.90;;;;;;5085696;28;20247;-51
2022/03/06 03:30:07;;;;;;;3.83;3.43;;;-1.10;99.90;;;;;;5083239;28;20215;-57
2022/03/06 03:32:51;;;;;;;6.47;2.67;;;-1.20;99.90;;;;;;5085236;28;20284;-54
2022/03/06 03:35:35;;;;;;;8.37;2.87;;;-1.30;99.90;;;;;;5085522;28;20211;-49
2022/03/06 03:38:19;;;;;;;9.53;3.73;;;-1.30;99.90;;;;;;5081832;28;20216;-54
2022/03/06 03:41:04;;;;;;;2.37;2.17;;;-1.40;99.90;;;;;;5085435;28;20332;-52
2022/03/06 03:43:48;;;;;;;4.77;3.60;;;-1.30;99.90;;;;;;5084316;28;20192;-57
2022/03/06 03:46:33;;;;;;;44.47;19.50;;;-1.40;99.90;;;;;;5082335;28;20196;-55
2022/03/06 03:49:17;;;;;;;5.70;3.60;;;-1.30;99.90;;;;;;5085457;28;20201;-56
2022/03/06 03:52:02;;;;;;;3.63;2.27;;;-1.30;99.90;;;;;;5082497;28;20262;-57
2022/03/06 03:54:46;;;;;;;5.37;1.80;;;-1.20;99.90;;;;;;5083026;28;20192;-55
2022/03/06 03:57:31;;;;;;;1.53;1.53;;;-1.30;99.90;;;;;;5085734;28;20274;-56
2022/03/06 04:00:15;;;;;;;2.70;1.83;;;-1.40;99.90;;;;;;5081758;28;20224;-52
2022/03/06 04:02:59;;;;;;;5.43;2.37;;;-1.30;99.90;;;;;;5084653;28;20216;-56
2022/03/06 04:05:43;;;;;;;1.80;1.43;;;-1.40;99.90;;;;;;5084756;28;20198;-55
2022/03/06 04:08:28;;;;;;;3.40;1.97;;;-1.50;99.90;;;;;;5082036;28;20255;-54
2022/03/06 04:11:13;;;;;;;3.97;1.77;;;-1.50;99.90;;;;;;5085345;28;20254;-52
2022/03/06 04:13:57;;;;;;;2.10;1.70;;;-1.50;99.90;;;;;;5083451;28;20243;-56
2022/03/06 04:16:42;;;;;;;8.87;3.33;;;-1.40;99.90;;;;;;5082131;28;20193;-54
2022/03/06 04:19:26;;;;;;;2.53;2.33;;;-1.50;99.90;;;;;;5085080;28;20220;-54
2022/03/06 04:22:10;;;;;;;1.43;1.33;;;-1.50;99.90;;;;;;5082533;28;20236;-57
2022/03/06 04:24:55;;;;;;;1.70;1.60;;;-1.60;99.90;;;;;;5083751;28;20303;-56
2022/03/06 04:27:39;;;;;;;5.40;2.53;;;-1.60;99.90;;;;;;5084549;28;20189;-53
2022/03/06 04:30:25;;;;;;;1.73;1.43;;;-1.60;99.90;;;;;;5082092;28;20192;-49
2022/03/06 04:33:09;;;;;;;2.90;1.43;;;-1.60;99.90;;;;;;5084267;28;20197;-49
2022/03/06 04:35:53;;;;;;;1.77;1.67;;;-1.70;99.90;;;;;;5084406;28;20251;-54
2022/03/06 04:38:39;;;;;;;1.63;1.53;;;-1.60;99.90;;;;;;5082326;28;20232;-52
2022/03/06 04:41:23;;;;;;;2.93;2.33;;;-1.70;99.90;;;;;;5088700;28;20201;-52
2022/03/06 04:44:08;;;;;;;3.20;2.13;;;-1.70;99.90;;;;;;5087742;28;20238;-55
2022/03/06 04:46:52;;;;;;;4.00;2.20;;;-1.70;99.90;;;;;;5085807;28;20652;-55
2022/03/06 04:49:37;;;;;;;2.03;1.53;;;-1.70;99.90;;;;;;5089203;28;20266;-52
2022/03/06 04:52:22;;;;;;;1.80;1.70;;;-1.70;99.90;;;;;;5086162;28;20193;-54
2022/03/06 04:55:06;;;;;;;5.40;4.43;;;-1.80;99.90;;;;;;5085986;28;20181;-51
2022/03/06 04:57:51;;;;;;;3.23;3.03;;;-1.80;99.90;;;;;;5073686;28;20220;-54
2022/03/06 05:00:36;;;;;;;5.07;1.73;;;-1.70;99.90;;;;;;5063733;28;20221;-56
2022/03/06 05:03:20;;;;;;;5.40;2.17;;;-1.70;99.90;;;;;;5073558;28;20193;-50
2022/03/06 05:06:05;;;;;;;4.27;2.27;;;-1.70;99.90;;;;;;5075164;28;20192;-53
2022/03/06 05:08:49;;;;;;;5.07;3.30;;;-1.70;99.90;;;;;;5075516;28;20201;-50
2022/03/06 05:11:33;;;;;;;1.33;1.23;;;-1.60;99.90;;;;;;5076839;28;20197;-53
2022/03/06 05:14:17;;;;;;;3.40;2.67;;;-1.70;99.90;;;;;;5073712;28;20201;-49
2022/03/06 05:17:02;;;;;;;2.97;2.77;;;-1.70;99.90;;;;;;5075033;28;20221;-52
2022/03/06 05:19:46;;;;;;;7.17;3.10;;;-1.70;99.90;;;;;;5077922;28;20205;-53
2022/03/06 05:22:31;;;;;;;3.47;2.63;;;-1.80;99.90;;;;;;5075745;28;20213;-56
2022/03/06 05:25:15;;;;;;;3.17;2.17;;;-1.70;99.90;;;;;;5068668;28;20197;-54
2022/03/06 05:27:59;;;;;;;2.03;1.93;;;-1.80;99.90;;;;;;5067668;28;20251;-55
2022/03/06 05:30:44;;;;;;;2.53;2.33;;;-1.80;99.90;;;;;;5064208;28;20244;-54
2022/03/06 05:33:29;;;;;;;2.77;2.20;;;-1.80;99.90;;;;;;5068829;28;20189;-55
2022/03/06 05:36:13;;;;;;;3.17;2.13;;;-1.80;99.90;;;;;;5068417;28;20193;-55
2022/03/06 05:38:58;;;;;;;2.73;2.40;;;-1.80;99.90;;;;;;5065647;28;20229;-51
2022/03/06 05:41:42;;;;;;;3.47;1.63;;;-1.80;99.90;;;;;;5069459;28;20201;-55
2022/03/06 05:44:27;;;;;;;4.73;1.90;;;-1.80;99.90;;;;;;5067687;28;20200;-56
2022/03/06 05:47:12;;;;;;;2.70;1.53;;;-1.80;99.90;;;;;;5066501;28;20251;-46
2022/03/06 05:49:56;;;;;;;2.13;1.93;;;-1.90;99.90;;;;;;5068989;28;20197;-50
2022/03/06 05:52:41;;;;;;;5.70;1.60;;;-1.90;99.90;;;;;;5065899;28;20208;-53
2022/03/06 05:55:25;;;;;;;2.13;1.93;;;-1.90;99.90;;;;;;5068280;28;20189;-51
2022/03/06 05:58:09;;;;;;;2.20;1.83;;;-1.80;99.90;;;;;;5068862;28;20229;-49
2022/03/06 06:00:53;;;;;;;2.83;2.63;;;-1.80;99.90;;;;;;5064961;28;20298;-51
2022/03/06 06:03:38;;;;;;;7.10;1.20;;;-1.90;99.90;;;;;;5068831;28;20223;-49
2022/03/06 06:06:23;;;;;;;4.23;2.47;;;-1.80;99.90;;;;;;5068056;28;20217;-52
2022/03/06 06:09:08;;;;;;;6.43;3.37;;;-1.80;99.90;;;;;;5065292;28;20247;-54
2022/03/06 06:11:52;;;;;;;4.67;3.13;;;-1.80;99.90;;;;;;5068664;28;20251;-51
2022/03/06 06:14:37;;;;;;;2.43;2.20;;;-1.70;99.90;;;;;;5066339;28;20205;-56
2022/03/06 06:17:22;;;;;;;2.70;2.50;;;-1.80;99.90;;;;;;5065882;28;20225;-49
2022/03/06 06:20:07;;;;;;;1.53;1.37;;;-1.60;99.90;;;;;;5068925;28;20240;-49
2022/03/06 06:22:53;;;;;;;1.77;1.20;;;-1.60;99.90;;;;;;5065119;28;20228;-52
2022/03/06 06:25:37;;;;;;;2.80;2.40;;;-1.60;99.90;;;;;;5067365;28;20194;-54
2022/03/06 06:28:22;;;;;;;2.70;2.50;;;-1.70;99.90;;;;;;5067987;28;20197;-52
2022/03/06 06:31:07;;;;;;;6.33;2.03;;;-1.60;99.90;;;;;;5064650;28;20193;-56
2022/03/06 06:33:52;;;;;;;5.20;2.60;;;-1.60;99.90;;;;;;5068473;28;20247;-49
2022/03/06 06:36:37;;;;;;;5.93;3.50;;;-1.60;99.90;;;;;;5067120;28;20193;-54
2022/03/06 06:39:21;;;;;;;4.53;2.53;;;-1.50;99.90;;;;;;5064680;28;20197;-49
2022/03/06 06:42:06;;;;;;;3.20;2.20;;;-1.40;99.90;;;;;;5067960;28;20201;-53
2022/03/06 06:44:50;;;;;;;2.23;2.03;;;-1.40;99.90;;;;;;5065548;28;20214;-52
2022/03/06 06:47:35;;;;;;;2.17;2.03;;;-1.30;99.90;;;;;;5065969;28;20217;-51
2022/03/06 06:50:19;;;;;;;7.60;2.53;;;-1.20;99.90;;;;;;5067886;28;20233;-53
2022/03/06 06:53:04;;;;;;;1.77;1.63;;;-1.20;99.90;;;;;;5065115;28;20205;-53
2022/03/06 06:55:49;;;;;;;4.40;2.40;;;-1.10;99.90;;;;;;5066379;28;20198;-55
2022/03/06 06:58:33;;;;;;;2.40;2.20;;;-1.10;99.90;;;;;;5067211;28;20241;-52
2022/03/06 07:01:17;;;;;;;3.07;2.87;;;-1.00;99.90;;;;;;5063058;28;20193;-50
2022/03/06 07:04:02;;;;;;;13.47;6.43;;;-0.90;99.90;;;;;;5068080;28;20197;-54
2022/03/06 07:06:47;;;;;;;4.17;3.00;;;-0.70;99.90;;;;;;5066628;28;20201;-53
2022/03/06 07:09:32;;;;;;;3.97;3.50;;;-0.30;99.90;;;;;;5064263;28;20209;-54
2022/03/06 07:12:16;;;;;;;3.60;2.00;;;-0.10;99.90;;;;;;5067396;28;20724;-53
2022/03/06 07:15:00;;;;;;;2.37;2.17;;;0.10;99.90;;;;;;5064927;28;20201;-55
2022/03/06 07:17:45;;;;;;;4.80;3.10;;;0.20;99.90;;;;;;5064975;28;20229;-54
2022/03/06 07:20:30;;;;;;;3.30;3.10;;;-0.10;99.90;;;;;;5066999;28;20194;-50
2022/03/06 07:23:15;;;;;;;3.23;2.33;;;0.20;99.90;;;;;;5063913;28;20303;-52
2022/03/06 07:25:59;;;;;;;5.53;2.93;;;0.10;99.90;;;;;;5066512;28;20283;-50
2022/03/06 07:28:43;;;;;;;5.00;3.57;;;0.20;99.90;;;;;;5066340;28;20291;-48
2022/03/06 07:31:28;;;;;;;3.20;2.50;;;0.20;99.90;;;;;;5063477;28;20651;-53
2022/03/06 07:34:12;;;;;;;3.27;2.60;;;0.40;99.90;;;;;;5067224;28;20224;-53
2022/03/06 07:36:56;;;;;;;4.97;2.97;;;0.30;99.90;;;;;;5065462;28;20189;-54
2022/03/06 07:39:41;;;;;;;3.83;2.93;;;0.30;99.90;;;;;;5063606;28;20278;-54
2022/03/06 07:42:26;;;;;;;5.07;4.00;;;0.40;99.90;;;;;;5066947;28;20201;-53
2022/03/06 07:45:11;;;;;;;15.87;7.37;;;0.50;99.90;;;;;;5064235;28;20205;-54
2022/03/06 07:47:55;;;;;;;6.07;3.67;;;0.60;99.90;;;;;;5064759;28;20273;-54
2022/03/06 07:50:40;;;;;;;2.60;2.43;;;0.50;99.90;;;;;;5066829;28;20244;-54
2022/03/06 07:53:24;;;;;;;6.47;4.10;;;0.60;99.90;;;;;;5063996;28;20189;-54
2022/03/06 07:56:09;;;;;;;6.40;2.83;;;0.80;99.90;;;;;;5066105;28;20248;-52
2022/03/06 07:58:53;;;;;;;7.43;3.10;;;1.20;99.90;;;;;;5066406;28;20264;-52
2022/03/06 08:01:38;;;;;;;3.57;3.27;;;1.10;99.90;;;;;;5063444;28;20198;-50
2022/03/06 08:04:22;;;;;;;7.37;2.87;;;1.20;99.90;;;;;;5067117;28;20243;-51
2022/03/06 08:07:07;;;;;;;3.33;3.13;;;1.00;99.90;;;;;;5065240;28;20269;-52
2022/03/06 08:09:51;;;;;;;4.87;3.37;;;1.10;99.90;;;;;;5063459;28;20260;-47
2022/03/06 08:12:36;;;;;;;4.17;2.60;;;1.20;99.90;;;;;;5066620;28;20213;-47
2022/03/06 08:15:20;;;;;;;20.63;13.30;;;1.30;99.90;;;;;;5064309;28;20213;-50
2022/03/06 08:18:05;;;;;;;4.33;3.57;;;1.60;99.90;;;;;;5064608;28;20301;-57
2022/03/06 08:20:49;;;;;;;4.03;3.63;;;1.60;99.90;;;;;;5066471;28;20197;-51
2022/03/06 08:23:33;;;;;;;2.50;2.30;;;1.60;99.90;;;;;;5062638;28;20243;-52
2022/03/06 08:26:18;;;;;;;3.47;3.17;;;1.90;99.90;;;;;;5066031;28;20189;-53
2022/03/06 08:29:02;;;;;;;3.07;2.53;;;1.80;99.90;;;;;;5065689;28;20232;-49
2022/03/06 08:31:47;;;;;;;2.00;1.80;;;2.00;99.90;;;;;;5062795;28;20184;-54
2022/03/06 08:34:31;;;;;;;3.30;2.70;;;2.30;99.90;;;;;;5066857;28;20188;-56
2022/03/06 08:37:15;;;;;;;3.20;2.23;;;2.50;99.90;;;;;;5064764;28;20303;-50
2022/03/06 08:40:00;;;;;;;3.50;2.13;;;2.70;99.90;;;;;;5063255;28;20273;-49
2022/03/06 08:42:45;;;;;;;3.30;2.47;;;2.70;99.90;;;;;;5066378;28;20220;-53
2022/03/06 08:45:29;;;;;;;7.57;3.03;;;3.10;99.90;;;;;;5063553;28;20201;-52
2022/03/06 08:48:14;;;;;;;6.60;2.83;;;3.50;99.90;;;;;;5064953;28;20213;-50
2022/03/06 08:50:58;;;;;;;4.97;2.33;;;3.80;99.90;;;;;;5065522;28;20232;-53
2022/03/06 08:53:43;;;;;;;3.77;3.10;;;3.70;99.60;;;;;;5061505;28;20236;-51
2022/03/06 08:56:27;;;;;;;3.47;2.47;;;4.10;99.50;;;;;;5063264;28;20200;-55
2022/03/06 08:59:12;;;;;;;2.80;2.57;;;4.40;98.10;;;;;;5063769;28;20194;-54
2022/03/06 09:01:56;;;;;;;2.87;2.27;;;4.70;97.50;;;;;;5061494;28;20189;-53
2022/03/06 09:04:40;;;;;;;3.17;2.43;;;4.80;97.10;;;;;;5063206;28;20248;-51
2022/03/06 09:07:25;;;;;;;2.83;1.80;;;4.60;96.20;;;;;;5061891;28;20197;-50
2022/03/06 09:10:10;;;;;;;10.63;6.57;;;4.60;96.20;;;;;;5058685;28;20201;-50
2022/03/06 09:12:56;;;;;;;6.03;3.30;;;4.70;96.40;;;;;;5061704;28;20245;-49
2022/03/06 09:15:41;;;;;;;6.43;3.13;;;4.50;95.80;;;;;;5057035;28;20205;-54
2022/03/06 09:18:25;;;;;;;3.90;2.23;;;4.10;95.60;;;;;;5059093;28;20222;-53
2022/03/06 09:21:10;;;;;;;4.00;2.07;;;4.20;95.60;;;;;;5064715;28;20201;-54
2022/03/06 09:23:55;;;;;;;2.30;1.90;;;4.30;94.80;;;;;;5060412;28;20229;-54
2022/03/06 09:26:39;;;;;;;4.53;2.03;;;4.40;94.70;;;;;;5065651;28;20193;-52
2022/03/06 09:29:23;;;;;;;2.87;2.20;;;4.50;94.80;;;;;;5054986;28;20196;-53
2022/03/06 09:32:07;;;;;;;5.53;2.50;;;4.70;94.40;;;;;;5065545;28;20283;-50
2022/03/06 09:34:52;;;;;;;3.07;1.80;;;4.80;93.70;;;;;;5065516;28;20193;-52
2022/03/06 09:37:37;;;;;;;2.33;2.13;;;4.70;93.20;;;;;;5063478;28;20217;-52
2022/03/06 09:40:21;;;;;;;12.33;6.23;;;4.80;93.00;;;;;;5063433;28;20240;-52
2022/03/06 09:43:13;;;;;;;2.40;1.80;;;4.80;92.90;;;;;;5064247;28;20189;-51
2022/03/06 09:46:06;;;;;;;4.73;2.43;;;4.50;92.10;;;;;;5060158;28;20182;-51
2022/03/06 09:48:52;;;;;;;5.83;1.93;;;4.40;92.40;;;;;;5064907;28;20201;-51
2022/03/06 09:51:40;;;;;;;5.87;2.30;;;4.40;92.80;;;;;;5065402;28;20201;-53
2022/03/06 09:54:24;;;;;;;2.40;1.77;;;4.50;93.00;;;;;;5063035;28;20263;-52
2022/03/06 09:57:09;;;;;;;2.50;2.30;;;4.70;92.70;;;;;;5065374;28;20291;-52
2022/03/06 09:59:53;;;;;;;5.17;1.80;;;4.80;92.90;;;;;;5066674;28;20201;-51
2022/03/06 10:03:16;;;;;;;3.00;2.40;;;4.70;92.20;;;;;;5064991;28;20194;-50
2022/03/06 10:06:04;;;;;;;10.00;2.10;;;4.80;92.30;;;;;;5042666;28;20230;-49
2022/03/06 10:09:02;;;;;;;10.33;3.50;;;5.00;92.20;;;;;;5030704;28;20372;-51
2022/03/06 10:11:47;;;;;;;4.77;2.80;;;5.30;92.30;;;;;;5028566;28;20222;-54
2022/03/06 10:14:38;;;;;;;6.93;2.27;;;5.00;91.40;;;;;;5030147;28;20199;-54
2022/03/06 10:17:24;;;;;;;4.43;2.50;;;4.60;91.80;;;;;;5030002;28;20226;-52
2022/03/06 10:20:11;;;;;;;7.07;2.53;;;4.90;92.10;;;;;;5027663;28;20257;-52
2022/03/06 10:22:58;;;;;;;2.97;1.90;;;5.00;92.10;;;;;;5028326;28;20272;-48
2022/03/06 10:25:42;;;;;;;3.17;2.60;;;5.10;91.10;;;;;;5031744;28;20190;-52
2022/03/06 10:28:26;;;;;;;3.10;2.10;;;5.30;91.70;;;;;;5026080;28;20203;-49
2022/03/06 10:31:11;;;;;;;3.17;2.10;;;5.40;90.60;;;;;;5030702;28;20270;-53
2022/03/06 10:34:10;;;;;;;12.87;6.50;;;5.20;90.40;;;;;;5030038;28;20225;-52
2022/03/06 10:36:59;;;;;;;17.13;7.73;;;5.20;91.30;;;;;;5026967;28;20194;-50
2022/03/06 10:39:48;;;;;;;9.47;4.70;;;5.30;91.50;;;;;;5025964;28;20257;-50
2022/03/06 10:42:32;;;;;;;6.73;2.80;;;5.60;90.50;;;;;;5064723;28;20202;-54
2022/03/06 10:45:23;;;;;;;3.10;2.40;;;5.80;91.00;;;;;;5064144;28;20229;-53
2022/03/06 10:48:09;;;;;;;3.20;2.30;;;5.70;89.10;;;;;;5065210;28;20232;-51
2022/03/06 10:51:02;;;;;;;5.13;2.47;;;5.80;88.80;;;;;;5063335;28;20265;-54
2022/03/06 10:53:54;;;;;;;4.03;2.20;;;5.90;88.90;;;;;;5064557;28;20193;-57
2022/03/06 10:56:40;;;;;;;2.93;2.00;;;6.10;88.60;;;;;;5076179;28;20244;-50
2022/03/06 10:59:24;;;;;;;3.33;2.20;;;6.20;87.40;;;;;;5050717;28;20252;-53
2022/03/06 11:02:11;;;;;;;3.57;2.60;;;6.20;85.70;;;;;;5064194;28;20193;-52
2022/03/06 11:04:58;;;;;;;3.23;2.10;;;6.50;87.00;;;;;;5066617;28;20185;-51
2022/03/06 11:07:42;;;;;;;6.07;2.63;;;6.70;85.50;;;;;;5062893;28;20198;-53
2022/03/06 11:10:28;;;;;;;3.07;2.10;;;6.40;85.60;;;;;;5065342;28;20339;-51
2022/03/06 11:13:14;;;;;;;2.80;2.00;;;6.40;85.30;;;;;;5066997;28;20198;-50
2022/03/06 11:15:59;;;;;;;3.97;2.37;;;5.80;85.60;;;;;;5061288;28;20193;-51
2022/03/06 11:18:43;;;;;;;3.90;2.90;;;6.00;87.00;;;;;;5064769;28;20248;-52
2022/03/06 11:21:28;;;;;;;4.77;2.37;;;6.00;85.10;;;;;;5065089;28;20201;-53
2022/03/06 11:24:25;;;;;;;1.70;1.60;;;5.90;85.50;;;;;;5061961;28;20352;-52
2022/03/06 11:27:47;;;;;;;3.53;2.13;;;5.70;83.90;;;;;;5066970;28;20190;-51
2022/03/06 11:30:31;;;;;;;3.57;1.73;;;5.90;83.30;;;;;;5054614;28;20197;-52
2022/03/06 11:33:18;;;;;;;1.87;1.50;;;5.70;83.40;;;;;;5064435;28;20252;-53
2022/03/06 11:36:19;;;;;;;3.77;2.30;;;5.90;84.10;;;;;;5056933;28;20186;-51
2022/03/06 11:39:03;;;;;;;1.47;1.37;;;5.80;82.50;;;;;;5066349;28;20236;-53
2022/03/06 11:41:47;;;;;;;1.97;1.73;;;6.30;85.30;;;;;;5064107;28;20221;-53
2022/03/06 11:44:48;;;;;;;3.10;1.77;;;6.70;82.90;;;;;;5067239;28;20243;-51
2022/03/06 11:47:40;;;;;;;4.83;2.67;;;6.70;81.40;;;;;;5065596;28;20273;-51
2022/03/06 11:50:24;;;;;;;4.80;2.70;;;6.70;79.90;;;;;;5063569;28;20216;-53
2022/03/06 11:53:56;;;;;;;4.10;3.20;;;6.70;79.90;;;;;;5067392;28;20224;-50
2022/03/06 11:56:50;;;;;;;8.67;4.97;;;6.60;80.00;;;;;;5066661;28;20209;-50
2022/03/06 11:59:35;;;;;;;2.20;1.70;;;6.70;78.90;;;;;;5075210;28;20198;-50
2022/03/06 12:02:21;;;;;;;8.73;4.67;;;6.50;79.60;;;;;;5063558;28;20211;-52
2022/03/06 12:05:06;;;;;;;9.00;4.80;;;6.40;78.90;;;;;;5066641;28;20239;-53
2022/03/06 12:07:51;;;;;;;6.67;3.63;;;6.60;79.20;;;;;;5061969;28;20220;-51
2022/03/06 12:10:35;;;;;;;8.50;5.13;;;6.70;78.60;;;;;;5069909;28;21004;-52
2022/03/06 12:13:21;;;;;;;5.07;3.97;;;6.50;79.30;;;;;;5071656;28;20224;-54
2022/03/06 12:16:08;;;;;;;4.67;2.60;;;6.70;78.30;;;;;;5073565;28;20324;-52
2022/03/06 12:19:03;;;;;;;11.37;4.77;;;6.60;75.60;;;;;;5070514;28;20233;-49
2022/03/06 12:21:47;;;;;;;6.27;3.43;;;6.60;77.10;;;;;;5069450;28;20241;-58
2022/03/06 12:24:32;;;;;;;4.67;2.20;;;6.80;78.10;;;;;;5083306;28;20192;-52
2022/03/06 12:27:20;;;;;;;3.30;1.83;;;7.30;77.20;;;;;;5079306;28;20193;-51
2022/03/06 12:30:13;;;;;;;3.50;1.67;;;7.50;76.20;;;;;;5063320;28;20193;-54
2022/03/06 12:32:57;;;;;;;15.07;5.27;;;7.40;75.30;;;;;;5063220;28;20287;-53
2022/03/06 12:35:42;;;;;;;9.67;2.80;;;7.40;74.80;;;;;;5076665;28;20220;-52
2022/03/06 12:38:27;;;;;;;5.97;3.67;;;7.20;75.60;;;;;;5082365;28;20271;-53
2022/03/06 12:41:12;;;;;;;6.97;2.63;;;6.70;77.60;;;;;;5060914;28;20193;-51
2022/03/06 12:43:59;;;;;;;3.10;2.63;;;6.50;78.20;;;;;;5065541;28;20279;-52
2022/03/06 12:46:44;;;;;;;3.83;3.43;;;6.00;78.20;;;;;;5062896;28;20196;-52
2022/03/06 12:49:28;;;;;;;12.00;6.27;;;6.30;79.60;;;;;;5065606;28;20197;-53
2022/03/06 12:52:25;;;;;;;9.37;4.87;;;6.60;79.10;;;;;;5052303;28;20189;-54
2022/03/06 12:55:14;;;;;;;5.00;3.20;;;6.50;77.50;;;;;;5059228;28;20201;-53
2022/03/06 12:57:59;;;;;;;6.70;4.50;;;6.10;78.40;;;;;;5066252;28;20308;-49
2022/03/06 13:00:43;;;;;;;3.17;2.83;;;6.40;78.10;;;;;;5066057;28;20202;-54
2022/03/06 13:03:27;;;;;;;3.27;2.97;;;6.20;78.50;;;;;;5065660;28;20217;-53
2022/03/06 13:06:14;;;;;;;2.57;1.60;;;6.10;78.70;;;;;;5069540;28;20221;-52
2022/03/06 13:08:58;;;;;;;1.87;1.63;;;6.00;77.60;;;;;;5067953;28;20217;-53
2022/03/06 13:11:49;;;;;;;1.43;1.17;;;6.00;79.10;;;;;;5067839;28;20189;-56
2022/03/06 13:14:38;;;;;;;1.67;1.57;;;5.80;78.20;;;;;;5069805;28;20244;-51
2022/03/06 13:17:23;;;;;;;3.80;1.40;;;5.70;80.60;;;;;;5067020;28;20237;-57
2022/03/06 13:20:09;;;;;;;1.67;1.10;;;6.00;79.60;;;;;;5068366;28;20200;-54
2022/03/06 13:22:53;;;;;;;1.73;1.63;;;5.90;78.60;;;;;;5069353;28;20303;-53
2022/03/06 13:25:38;;;;;;;1.53;1.27;;;6.00;78.30;;;;;;5066337;28;20247;-54
2022/03/06 13:28:22;;;;;;;1.73;1.63;;;6.00;78.30;;;;;;5068879;28;20209;-52
2022/03/06 13:31:06;;;;;;;14.33;6.23;;;6.00;78.70;;;;;;5068451;28;20200;-52
2022/03/06 13:34:08;;;;;;;1.60;1.50;;;5.70;77.80;;;;;;5067123;28;20194;-52
2022/03/06 13:36:55;;;;;;;1.93;1.33;;;5.50;77.90;;;;;;5069286;28;20244;-56
2022/03/06 13:39:39;;;;;;;2.23;1.00;;;5.20;78.40;;;;;;5068344;28;20213;-56
2022/03/06 13:42:35;;;;;;;1.70;1.60;;;5.20;78.60;;;;;;5065917;28;20212;-55
2022/03/06 13:45:20;;;;;;;1.33;1.07;;;5.30;78.60;;;;;;5069011;28;20194;-55
2022/03/06 13:48:07;;;;;;;1.60;1.50;;;5.40;79.10;;;;;;5067391;28;20252;-57
2022/03/06 13:50:52;;;;;;;1.60;1.50;;;4.90;78.90;;;;;;5066534;28;20196;-51
2022/03/06 13:53:36;;;;;;;4.07;2.10;;;4.80;79.30;;;;;;5068996;28;20205;-49
2022/03/06 13:56:28;;;;;;;1.33;1.20;;;4.70;79.40;;;;;;5066368;28;20202;-49
2022/03/06 13:59:25;;;;;;;1.40;1.30;;;4.80;79.40;;;;;;5066986;28;20233;-49
2022/03/06 14:02:11;;;;;;;2.13;1.50;;;4.90;79.60;;;;;;5069359;28;20196;-49
2022/03/06 14:04:55;;;;;;;1.27;1.20;;;4.90;79.50;;;;;;5066316;28;20194;-52
2022/03/06 14:07:40;;;;;;;3.20;1.20;;;4.90;79.60;;;;;;5067602;28;20212;-53
2022/03/06 14:10:41;;;;;;;1.13;1.13;;;4.90;79.80;;;;;;5068030;28;20197;-56
2022/03/06 14:13:36;;;;;;;1.87;1.53;;;4.60;79.50;;;;;;5065354;28;20274;-50
2022/03/06 14:16:30;;;;;;;1.80;1.70;;;4.20;80.40;;;;;;5067062;28;20240;-52
2022/03/06 14:19:17;;;;;;;1.17;1.10;;;4.20;80.90;;;;;;5068479;28;20249;-56
2022/03/06 14:22:02;;;;;;;1.80;1.70;;;4.10;80.90;;;;;;5064727;28;20237;-58
2022/03/06 14:24:46;;;;;;;2.17;2.07;;;4.10;81.40;;;;;;5067640;28;20197;-55
2022/03/06 14:27:33;;;;;;;1.37;1.23;;;4.10;81.10;;;;;;5068058;28;20275;-57
2022/03/06 14:30:18;;;;;;;2.70;1.33;;;4.20;81.30;;;;;;5065205;28;20243;-51